Time;durP1;ratioP1;P1;durP2;ratioP2;P2;SDS_P1;SDS_P2;PMS_P1;PMS_P2;Temp;Humidity;BMP_temperature;BMP_pressure;BME280_temperature;BME280_humidity;BME280_pressure;Samples;Min_cycle;Max_cycle;Signal;HPM_P1;HPM_P2
2023/07/10 00:00:59;;;;;;;7.03;4.97;;;22.80;99.90;;;23.43;100.00;101282.25;5216717;28;20108;-52
2023/07/10 00:03:32;;;;;;;5.93;4.82;;;22.80;99.90;;;23.41;100.00;101284.03;5206182;28;20044;-51
2023/07/10 00:06:10;;;;;;;6.72;4.75;;;22.80;99.90;;;23.40;100.00;101287.56;5216950;28;20049;-52
2023/07/10 00:08:42;;;;;;;7.43;4.80;;;22.80;99.90;;;23.38;100.00;101283.19;5201499;28;20045;-51
2023/07/10 00:11:19;;;;;;;7.70;6.00;;;22.80;99.90;;;23.33;100.00;101285.88;5200805;28;20826;-51
2023/07/10 00:13:52;;;;;;;7.05;5.25;;;22.70;99.90;;;23.31;100.00;101298.31;5213897;28;20092;-51
2023/07/10 00:16:26;;;;;;;6.95;5.45;;;22.70;99.90;;;23.28;100.00;101303.69;5217160;28;20053;-51
2023/07/10 00:18:58;;;;;;;9.02;5.65;;;22.70;99.90;;;23.27;100.00;101296.56;5213692;28;20046;-51
2023/07/10 00:21:31;;;;;;;8.55;5.47;;;22.70;99.90;;;23.27;100.00;101296.56;5201074;28;20507;-51
2023/07/10 00:24:07;;;;;;;8.95;5.70;;;22.70;99.90;;;23.27;100.00;101289.47;5217344;28;20426;-51
2023/07/10 00:26:42;;;;;;;7.03;5.18;;;22.70;99.90;;;23.28;100.00;101290.38;5217934;28;20053;-51
2023/07/10 00:29:18;;;;;;;7.75;5.07;;;22.70;99.90;;;23.27;100.00;101297.47;5217070;28;20064;-51
2023/07/10 00:31:50;;;;;;;8.27;5.43;;;22.70;99.90;;;23.25;100.00;101288.63;5201109;28;20045;-50
2023/07/10 00:34:27;;;;;;;7.60;5.20;;;22.70;99.90;;;23.23;100.00;101281.56;5217565;28;20069;-51
2023/07/10 00:36:59;;;;;;;7.43;5.53;;;22.70;99.90;;;23.19;100.00;101286.00;5217098;28;20064;-51
2023/07/10 00:39:39;;;;;;;7.25;5.15;;;22.60;99.90;;;23.16;100.00;101290.50;5209488;28;20053;-52
2023/07/10 00:42:19;;;;;;;8.38;5.13;;;22.60;99.90;;;23.16;100.00;101282.53;5200692;28;20041;-51
2023/07/10 00:44:56;;;;;;;7.65;5.32;;;22.60;99.90;;;23.16;100.00;101293.16;5217380;28;20061;-51
2023/07/10 00:47:36;;;;;;;7.45;4.70;;;22.60;99.90;;;23.18;100.00;101286.03;5200397;28;20083;-52
2023/07/10 00:50:20;;;;;;;7.75;5.25;;;22.60;99.90;;;23.21;100.00;101301.94;5216736;28;20248;-51
2023/07/10 00:52:54;;;;;;;10.05;6.05;;;22.60;99.90;;;23.23;100.00;101306.38;5213578;28;20057;-51
2023/07/10 00:55:31;;;;;;;10.60;7.40;;;22.60;99.90;;;23.24;100.00;101304.59;5224017;28;20888;-51
2023/07/10 00:58:28;;;;;;;9.73;6.95;;;22.70;99.90;;;23.25;100.00;101301.03;5224052;28;20414;-51
2023/07/10 01:01:07;;;;;;;8.77;6.15;;;22.70;99.90;;;23.29;100.00;101297.47;5207119;28;20099;-52
2023/07/10 01:03:41;;;;;;;9.45;6.43;;;22.70;99.90;;;23.32;100.00;101302.75;5213136;28;20136;-51
2023/07/10 01:06:18;;;;;;;9.20;6.07;;;22.70;99.90;;;23.34;100.00;101303.59;5224350;28;20053;-51
2023/07/10 01:08:54;;;;;;;9.30;5.93;;;22.70;99.90;;;23.36;100.00;101299.16;5224068;28;20045;-51
2023/07/10 01:11:27;;;;;;;8.95;6.18;;;22.80;99.90;;;23.38;100.00;101294.69;5223433;28;20042;-51
2023/07/10 01:14:03;;;;;;;8.85;6.15;;;22.80;99.90;;;23.39;100.00;101299.13;5223959;28;20049;-51
2023/07/10 01:16:35;;;;;;;9.77;6.90;;;22.80;99.90;;;23.41;100.00;101301.75;5216078;28;20493;-52
2023/07/10 01:19:17;;;;;;;9.73;6.47;;;22.80;99.90;;;23.42;100.00;101300.88;5223354;28;20049;-52
2023/07/10 01:21:51;;;;;;;9.52;6.05;;;22.90;99.90;;;23.41;100.00;101300.00;5223726;28;20049;-51
2023/07/10 01:24:23;;;;;;;;;;;22.80;99.90;;;23.41;100.00;101308.00;5208805;28;20045;-52
2023/07/10 01:26:58;;;;;;;14.18;8.20;;;22.90;99.90;;;23.38;100.00;101305.34;5207074;28;19971;-51
2023/07/10 01:29:36;;;;;;;12.25;7.65;;;22.90;99.90;;;23.38;100.00;101302.69;5206801;28;20041;-51
2023/07/10 01:32:16;;;;;;;9.77;7.05;;;22.80;99.90;;;23.38;100.00;101300.03;5223480;28;20046;-51
2023/07/10 01:34:53;;;;;;;10.10;6.50;;;22.90;99.90;;;23.40;100.00;101287.56;5211852;28;20061;-51
2023/07/10 01:37:27;;;;;;;8.68;5.90;;;22.90;99.90;;;23.41;100.00;101291.13;5222418;28;20049;-51
2023/07/10 01:40:00;;;;;;;10.15;6.25;;;22.90;99.90;;;23.43;100.00;101302.66;5206894;28;20073;-51
2023/07/10 01:42:32;;;;;;;9.52;6.53;;;22.90;99.90;;;23.46;100.00;101286.63;5208082;28;20042;-52
2023/07/10 01:45:13;;;;;;;8.73;6.05;;;22.90;99.90;;;23.46;100.00;101298.16;5203353;28;20103;-51
2023/07/10 01:47:45;;;;;;;10.85;6.82;;;22.90;99.90;;;23.46;100.00;101302.59;5219481;28;20542;-51
2023/07/10 01:50:18;;;;;;;11.50;7.82;;;22.90;99.90;;;23.42;100.00;101307.09;5221218;28;20049;-51
2023/07/10 01:52:52;;;;;;;12.93;7.25;;;22.90;99.90;;;23.40;100.00;101306.19;5206820;28;20041;-52
2023/07/10 01:55:27;;;;;;;10.02;6.45;;;22.90;99.90;;;23.40;100.00;101308.84;5206946;28;20053;-51
2023/07/10 01:58:00;;;;;;;10.30;6.05;;;22.80;99.90;;;23.42;100.00;101312.41;5223700;28;20053;-51
2023/07/10 02:00:33;;;;;;;10.52;6.80;;;22.90;99.90;;;23.40;100.00;101311.53;5206451;28;20048;-52
2023/07/10 02:03:05;;;;;;;12.00;7.65;;;22.90;99.90;;;23.38;100.00;101318.63;5223288;28;20053;-52
2023/07/10 02:05:38;;;;;;;9.45;6.05;;;22.90;99.90;;;23.36;100.00;101319.56;5195924;28;20045;-51
2023/07/10 02:08:12;;;;;;;13.25;8.73;;;22.80;99.90;;;23.30;100.00;101328.47;5220152;28;20111;-52
2023/07/10 02:10:44;;;;;;;14.32;7.95;;;22.80;99.90;;;23.21;100.00;101334.78;5219959;28;20091;-52
2023/07/10 02:13:17;;;;;;;13.75;7.90;;;22.70;99.90;;;23.17;100.00;101334.81;5203017;28;20055;-51
2023/07/10 02:15:51;;;;;;;10.68;6.38;;;22.70;99.90;;;23.14;100.00;101338.34;5203322;28;20077;-52
2023/07/10 02:18:27;;;;;;;10.18;6.80;;;22.70;99.90;;;23.10;100.00;101341.06;5220102;28;20049;-51
2023/07/10 02:20:59;;;;;;;10.73;7.38;;;22.60;99.90;;;23.08;100.00;101337.53;5219691;28;20438;-51
2023/07/10 02:23:34;;;;;;;10.52;6.40;;;22.70;99.90;;;23.06;100.00;101339.31;5210810;28;20041;-51
2023/07/10 02:26:07;;;;;;;8.65;5.72;;;22.60;99.90;;;23.05;100.00;101340.22;5219662;28;20056;-51
2023/07/10 02:28:39;;;;;;;9.45;6.20;;;22.60;99.90;;;23.06;100.00;101339.31;5203369;28;20050;-50
2023/07/10 02:31:12;;;;;;;9.70;6.30;;;22.60;99.90;;;23.09;100.00;101339.31;5202771;28;20458;-50
2023/07/10 02:33:44;;;;;;;8.32;4.70;;;22.60;99.90;;;23.11;100.00;101341.06;5219915;28;20110;-50
2023/07/10 02:36:19;;;;;;;;;;;22.60;99.90;;;23.11;100.00;101332.19;5219908;28;20447;-50
2023/07/10 02:38:52;;;;;;;10.45;5.95;;;22.60;99.90;;;23.07;100.00;101330.44;5203041;28;20461;-51
2023/07/10 02:41:25;;;;;;;8.75;5.47;;;22.60;99.90;;;23.05;100.00;101338.44;5202449;28;20111;-51
2023/07/10 02:43:57;;;;;;;10.27;5.78;;;22.60;99.90;;;23.04;100.00;101346.44;5205442;28;20049;-51
2023/07/10 02:46:30;;;;;;;10.48;5.78;;;22.60;99.90;;;23.01;100.00;101352.63;5202791;28;20053;-50
2023/07/10 02:49:02;;;;;;;11.52;6.68;;;22.50;99.90;;;22.97;100.00;101350.91;5219483;28;20068;-50
2023/07/10 02:51:34;;;;;;;10.98;6.28;;;22.50;99.90;;;22.95;100.00;101360.66;5202676;28;20037;-51
2023/07/10 02:54:13;;;;;;;11.50;7.10;;;22.50;99.90;;;22.92;100.00;101353.59;5206966;28;20052;-51
2023/07/10 02:56:46;;;;;;;12.02;7.90;;;22.50;99.90;;;22.90;100.00;101354.53;5208022;28;20460;-51
2023/07/10 02:59:18;;;;;;;14.68;8.35;;;22.40;99.90;;;22.87;100.00;101355.41;5216062;28;20518;-50
2023/07/10 03:01:51;;;;;;;11.80;7.25;;;22.40;99.90;;;22.86;100.00;101358.03;5219225;28;20511;-51
2023/07/10 03:04:23;;;;;;;13.48;7.88;;;22.30;99.90;;;22.84;100.00;101347.44;5219055;28;20472;-51
2023/07/10 03:06:55;;;;;;;10.25;6.00;;;22.40;99.90;;;22.87;100.00;101358.06;5219254;28;20056;-51
2023/07/10 03:09:29;;;;;;;11.23;6.93;;;22.40;99.90;;;22.87;100.00;101360.72;5217008;28;20054;-51
2023/07/10 03:12:02;;;;;;;13.63;7.75;;;22.40;99.90;;;22.86;100.00;101356.31;5202250;28;20064;-52
2023/07/10 03:14:34;;;;;;;18.23;10.00;;;22.40;99.90;;;22.83;100.00;101358.09;5218653;28;20103;-51
2023/07/10 03:17:06;;;;;;;17.05;10.13;;;22.40;99.90;;;22.76;100.00;101357.25;5218430;28;20515;-51
2023/07/10 03:19:39;;;;;;;12.32;7.80;;;22.30;99.90;;;22.70;100.00;101346.66;5218749;28;20056;-50
2023/07/10 03:22:11;;;;;;;14.68;8.40;;;22.20;99.90;;;22.66;100.00;101355.53;5202993;28;20120;-51
2023/07/10 03:24:45;;;;;;;17.25;9.60;;;22.20;99.90;;;22.64;100.00;101352.00;5194552;28;20049;-51
2023/07/10 03:27:17;;;;;;;16.50;9.73;;;22.20;99.90;;;22.61;100.00;101359.97;5201552;28;20067;-51
2023/07/10 03:29:50;;;;;;;18.52;11.18;;;22.20;99.90;;;22.56;100.00;101354.72;5202180;28;20058;-51
2023/07/10 03:32:25;;;;;;;18.15;10.25;;;22.10;99.90;;;22.53;100.00;101359.13;5201572;28;20548;-51
2023/07/10 03:34:58;;;;;;;19.83;10.77;;;22.10;99.90;;;22.51;100.00;101363.59;5214465;28;20049;-51
2023/07/10 03:37:30;;;;;;;22.48;12.10;;;22.10;99.90;;;22.48;100.00;101368.00;5218034;28;20400;-52
2023/07/10 03:40:05;;;;;;;26.00;14.38;;;22.10;99.90;;;22.42;100.00;101368.03;5218366;28;20085;-52
2023/07/10 03:42:38;;;;;;;27.42;15.45;;;22.00;99.90;;;22.34;100.00;101369.84;5217830;28;20041;-51
2023/07/10 03:45:11;;;;;;;29.52;14.73;;;22.00;99.90;;;22.29;100.00;101363.66;5218152;28;20064;-50
2023/07/10 03:47:43;;;;;;;27.80;13.57;;;21.90;99.90;;;22.23;100.00;101361.03;5201606;28;20037;-50
2023/07/10 03:50:16;;;;;;;25.35;13.32;;;21.80;99.90;;;22.20;100.00;101361.06;5217923;28;20045;-49
2023/07/10 03:52:49;;;;;;;24.42;13.18;;;21.80;99.90;;;22.17;100.00;101366.41;5218069;28;20041;-49
2023/07/10 03:55:22;;;;;;;18.23;10.88;;;21.80;99.90;;;22.17;100.00;101361.09;5201094;28;20592;-50
2023/07/10 03:57:55;;;;;;;21.80;11.90;;;21.80;99.90;;;22.17;100.00;101367.28;5201583;28;20065;-50
2023/07/10 04:00:27;;;;;;;19.77;10.90;;;21.80;99.90;;;22.11;100.00;101362.00;5217665;28;20045;-49
2023/07/10 04:02:59;;;;;;;18.15;9.63;;;21.70;99.90;;;22.07;100.00;101368.16;5201721;28;20056;-50
2023/07/10 04:05:32;;;;;;;20.60;11.55;;;21.70;99.90;;;22.05;100.00;101377.03;5217672;28;20459;-50
2023/07/10 04:08:05;;;;;;;18.40;10.13;;;21.70;99.90;;;22.03;100.00;101389.41;5217684;28;20056;-50
2023/07/10 04:10:38;;;;;;;19.33;10.98;;;21.60;99.90;;;22.01;100.00;101385.88;5216736;28;20103;-50
2023/07/10 04:13:11;;;;;;;19.13;10.55;;;21.60;99.90;;;21.98;100.00;101399.19;5200929;28;20088;-49
2023/07/10 04:15:43;;;;;;;20.67;11.63;;;21.60;99.90;;;21.93;100.00;101396.53;5201253;28;20388;-50
2023/07/10 04:18:16;;;;;;;18.90;9.98;;;21.50;99.90;;;21.94;100.00;101406.25;5200714;28;20056;-50
2023/07/10 04:20:49;;;;;;;16.73;10.43;;;21.50;99.90;;;21.91;100.00;101393.88;5200899;28;20563;-50
2023/07/10 04:23:21;;;;;;;16.67;9.80;;;21.50;99.90;;;21.89;100.00;101402.72;5200859;28;20041;-50
2023/07/10 04:25:56;;;;;;;18.25;10.10;;;21.50;99.90;;;21.88;100.00;101407.13;5213675;28;20042;-50
2023/07/10 04:28:31;;;;;;;;;;;21.50;99.90;;;21.86;100.00;101414.22;5214856;28;20535;-50
2023/07/10 04:31:03;;;;;;;20.13;10.63;;;21.50;99.90;;;21.84;100.00;101416.00;5200649;28;19951;-51
2023/07/10 04:33:36;;;;;;;19.90;10.40;;;21.50;99.90;;;21.86;100.00;101430.16;5200611;28;20037;-50
2023/07/10 04:36:09;;;;;;;22.48;12.05;;;21.40;99.90;;;21.84;100.00;101423.97;5200988;28;20045;-50
2023/07/10 04:38:42;;;;;;;18.52;10.07;;;21.50;99.90;;;21.81;100.00;101431.94;5217120;28;20041;-49
2023/07/10 04:41:19;;;;;;;17.00;9.45;;;21.40;99.90;;;21.79;100.00;101433.72;5200425;28;20060;-50
2023/07/10 04:43:52;;;;;;;14.25;8.13;;;21.40;99.90;;;21.78;100.00;101431.94;5193495;28;20049;-50
2023/07/10 04:46:24;;;;;;;14.50;8.52;;;21.40;99.90;;;21.82;100.00;101428.38;5214146;28;20060;-50
2023/07/10 04:48:56;;;;;;;14.13;7.95;;;21.40;99.90;;;21.86;100.00;101439.88;5217799;28;20104;-50
2023/07/10 04:51:29;;;;;;;14.50;7.72;;;21.50;99.90;;;21.88;100.00;101441.66;5197708;28;20053;-50
2023/07/10 04:54:01;;;;;;;17.52;8.85;;;21.50;99.90;;;21.92;100.00;101454.03;5201882;28;20042;-50
2023/07/10 04:56:35;;;;;;;13.38;7.53;;;21.50;99.90;;;21.91;100.00;101449.63;5217092;28;20514;-50
2023/07/10 04:59:07;;;;;;;16.38;8.60;;;21.50;99.90;;;21.91;100.00;101448.72;5217201;28;20513;-49
2023/07/10 05:01:40;;;;;;;15.68;8.02;;;21.50;99.90;;;21.88;100.00;101454.91;5200343;28;20407;-51
2023/07/10 05:04:12;;;;;;;18.30;9.10;;;21.50;99.90;;;21.88;100.00;101460.22;5213038;28;20057;-49
2023/07/10 05:06:44;;;;;;;20.48;9.88;;;21.50;99.90;;;21.87;100.00;101453.16;5216218;28;20056;-50
2023/07/10 05:09:17;;;;;;;20.15;9.73;;;21.50;99.90;;;21.81;100.00;101453.16;5212680;28;20100;-50
2023/07/10 05:11:50;;;;;;;18.85;9.73;;;21.50;99.90;;;21.77;100.00;101461.09;5216785;28;20523;-50
2023/07/10 05:14:24;;;;;;;21.45;9.93;;;21.50;99.90;;;21.75;100.00;101463.78;5216827;28;20045;-50
2023/07/10 05:16:56;;;;;;;19.75;10.15;;;21.50;99.90;;;21.72;100.00;101474.41;5200262;28;20553;-50
2023/07/10 05:19:32;;;;;;;19.95;9.23;;;21.40;99.90;;;21.72;100.00;101468.22;5200079;28;20099;-50
2023/07/10 05:22:05;;;;;;;16.55;8.60;;;21.40;99.90;;;21.77;100.00;101467.31;5200618;28;20519;-50
2023/07/10 05:24:38;;;;;;;18.35;8.35;;;21.40;99.90;;;21.81;100.00;101469.06;5198723;28;20042;-50
2023/07/10 05:27:12;;;;;;;21.42;9.63;;;21.40;99.90;;;21.86;100.00;101469.97;5216854;28;20100;-50
2023/07/10 05:29:44;;;;;;;16.10;8.02;;;21.50;99.90;;;21.89;100.00;101477.03;5200423;28;20045;-50
2023/07/10 05:32:17;;;;;;;16.20;8.05;;;21.50;99.90;;;21.92;100.00;101472.63;5201350;28;20049;-50
2023/07/10 05:34:49;;;;;;;17.23;8.45;;;21.50;99.90;;;21.92;100.00;101472.63;5199148;28;20053;-49
2023/07/10 05:37:23;;;;;;;14.30;7.30;;;21.60;99.90;;;21.92;100.00;101466.44;5212279;28;20042;-50
2023/07/10 05:39:56;;;;;;;16.92;7.80;;;21.60;99.90;;;21.92;100.00;101477.91;5200587;28;20045;-49
2023/07/10 05:42:30;;;;;;;14.30;8.25;;;21.60;99.90;;;21.92;100.00;101480.56;5220302;28;20049;-49
2023/07/10 05:45:02;;;;;;;14.25;7.70;;;21.60;99.90;;;21.95;100.00;101471.72;5200122;28;20053;-50
2023/07/10 05:47:35;;;;;;;12.52;6.85;;;21.50;99.90;;;21.97;100.00;101479.66;5218018;28;20049;-50
2023/07/10 05:50:08;;;;;;;13.63;7.95;;;21.60;99.90;;;21.98;100.00;101481.47;5219286;28;20418;-50
2023/07/10 05:52:43;;;;;;;13.35;6.45;;;21.60;99.90;;;21.99;100.00;101483.22;5203294;28;20503;-48
2023/07/10 05:55:16;;;;;;;12.57;6.13;;;21.60;99.90;;;22.04;100.00;101481.41;5202650;28;20053;-48
2023/07/10 05:57:50;;;;;;;10.57;6.00;;;21.60;99.90;;;22.11;100.00;101488.56;5208674;28;20554;-48
2023/07/10 06:00:22;;;;;;;13.63;6.90;;;21.70;99.90;;;22.16;100.00;101486.75;5203174;28;20049;-48
2023/07/10 06:02:55;;;;;;;16.95;8.00;;;21.70;99.90;;;22.18;100.00;101480.56;5195655;28;20045;-48
2023/07/10 06:05:28;;;;;;;13.35;7.50;;;21.80;99.90;;;22.19;100.00;101485.00;5203158;28;20145;-48
2023/07/10 06:08:00;;;;;;;10.55;6.65;;;21.80;99.90;;;22.19;100.00;101494.72;5219869;28;20091;-48
2023/07/10 06:10:34;;;;;;;11.38;6.32;;;21.80;99.90;;;22.22;100.00;101492.06;5219418;28;20057;-48
2023/07/10 06:13:07;;;;;;;11.27;6.30;;;21.80;99.90;;;22.23;100.00;101499.13;5203468;28;20045;-49
2023/07/10 06:15:42;;;;;;;9.82;5.88;;;21.80;99.90;;;22.25;100.00;101501.81;5219991;28;20057;-48
2023/07/10 06:18:15;;;;;;;12.10;6.63;;;21.80;99.90;;;22.31;100.00;101501.78;5203560;28;20498;-48
2023/07/10 06:20:52;;;;;;;11.98;6.50;;;21.90;99.90;;;22.37;100.00;101499.13;5219949;28;20107;-49
2023/07/10 06:23:26;;;;;;;9.65;5.65;;;21.90;99.90;;;22.44;100.00;101508.84;5219656;28;20143;-48
2023/07/10 06:25:59;;;;;;;8.68;5.40;;;22.00;99.90;;;22.45;100.00;101511.47;5212088;28;20061;-49
2023/07/10 06:28:36;;;;;;;7.18;4.25;;;22.00;99.90;;;22.65;100.00;101513.19;5203293;28;20144;-48
2023/07/10 06:31:11;;;;;;;8.23;4.85;;;22.20;99.90;;;22.89;100.00;101512.25;5203023;28;20056;-48
2023/07/10 06:33:43;;;;;;;11.63;6.25;;;22.30;99.90;;;23.04;100.00;101517.47;5219396;28;20384;-48
2023/07/10 06:36:15;;;;;;;11.00;5.53;;;22.50;99.90;;;23.26;100.00;101518.22;5219889;28;20091;-48
2023/07/10 06:38:51;;;;;;;10.32;5.32;;;22.70;99.90;;;23.42;100.00;101506.63;5219427;28;20076;-48
2023/07/10 06:41:27;;;;;;;12.40;5.25;;;22.80;99.90;;;23.50;100.00;101512.75;5198946;28;20115;-48
2023/07/10 06:44:01;;;;;;;8.25;4.50;;;22.90;99.90;;;23.56;100.00;101523.38;5195509;28;20053;-48
2023/07/10 06:46:33;;;;;;;12.43;5.22;;;23.00;99.90;;;23.64;100.00;101526.00;5219382;28;20522;-48
2023/07/10 06:49:09;;;;;;;9.93;5.03;;;23.10;99.90;;;23.71;100.00;101522.38;5219431;28;20041;-48
2023/07/10 06:51:41;;;;;;;9.45;4.40;;;23.10;99.90;;;23.77;100.00;101527.66;5218495;28;20060;-50
2023/07/10 06:54:14;;;;;;;10.82;4.70;;;23.20;99.90;;;23.83;100.00;101524.97;5202556;28;20045;-51
2023/07/10 06:56:46;;;;;;;7.68;4.03;;;23.30;99.90;;;23.94;100.00;101527.53;5201955;28;20056;-52
2023/07/10 06:59:21;;;;;;;8.00;3.97;;;23.40;99.90;;;24.04;100.00;101531.00;5219457;28;20045;-49
2023/07/10 07:01:54;;;;;;;6.70;3.97;;;23.40;99.90;;;24.09;100.00;101535.38;5202974;28;20049;-49
2023/07/10 07:04:26;;;;;;;9.10;3.75;;;23.50;99.90;;;24.14;100.00;101535.34;5202897;28;20572;-49
2023/07/10 07:06:58;;;;;;;8.77;4.35;;;23.50;99.90;;;24.18;100.00;101530.84;5203110;28;20408;-49
2023/07/10 07:09:31;;;;;;;9.13;3.80;;;23.60;99.90;;;24.25;100.00;101543.22;5219227;28;20037;-53
2023/07/10 07:12:04;;;;;;;6.75;3.78;;;23.70;99.90;;;24.26;100.00;101545.88;5206816;28;20539;-49
2023/07/10 07:14:37;;;;;;;9.38;3.75;;;23.70;99.90;;;24.30;100.00;101554.72;5215529;28;20426;-49
2023/07/10 07:17:10;;;;;;;9.85;3.60;;;23.70;99.90;;;24.35;100.00;101555.59;5202239;28;20053;-49
2023/07/10 07:19:43;;;;;;;8.65;3.40;;;23.70;99.90;;;24.31;100.00;101552.03;5218507;28;20095;-49
2023/07/10 07:22:16;;;;;;;8.48;3.70;;;23.70;99.90;;;24.33;100.00;101549.38;5202078;28;20447;-49
2023/07/10 07:24:48;;;;;;;8.38;3.50;;;23.70;99.90;;;24.31;100.00;101546.69;5201755;28;20046;-49
2023/07/10 07:27:20;;;;;;;7.55;3.88;;;23.70;99.90;;;24.31;100.00;101551.16;5205337;28;20396;-49
2023/07/10 07:29:54;;;;;;;7.65;3.20;;;23.70;99.90;;;24.36;100.00;101554.69;5202891;28;20049;-49
2023/07/10 07:32:27;;;;;;;8.48;3.28;;;23.80;99.90;;;24.40;100.00;101550.22;5198262;28;20054;-49
2023/07/10 07:35:02;;;;;;;8.57;3.20;;;23.80;99.90;;;24.46;100.00;101551.03;5218444;28;20061;-49
2023/07/10 07:37:35;;;;;;;8.07;3.35;;;23.80;99.90;;;24.51;100.00;101550.97;5202409;28;20057;-49
2023/07/10 07:40:09;;;;;;;7.95;3.53;;;23.90;99.90;;;24.59;100.00;101550.00;5202390;28;20046;-50
2023/07/10 07:42:42;;;;;;;5.68;2.90;;;23.90;99.90;;;24.63;100.00;101549.06;5202091;28;20144;-49
2023/07/10 07:45:17;;;;;;;7.25;3.22;;;24.00;99.90;;;24.71;100.00;101556.06;5202334;28;20501;-49
2023/07/10 07:47:49;;;;;;;5.75;2.80;;;24.00;99.90;;;24.73;100.00;101549.84;5202265;28;20060;-49
2023/07/10 07:50:21;;;;;;;6.28;2.67;;;24.10;99.90;;;24.85;100.00;101555.03;5202028;28;20553;-49
2023/07/10 07:52:54;;;;;;;9.65;3.10;;;24.10;99.90;;;25.14;100.00;101549.34;5201677;28;20034;-49
2023/07/10 07:55:26;;;;;;;6.53;2.88;;;24.30;99.90;;;25.36;100.00;101547.25;5201789;28;20042;-49
2023/07/10 07:57:58;;;;;;;6.57;3.30;;;24.50;99.90;;;25.52;100.00;101558.59;5202046;28;20251;-49
2023/07/10 08:00:32;;;;;;;6.35;3.00;;;24.60;99.90;;;25.51;100.00;101561.31;5201851;28;20095;-49
2023/07/10 08:03:10;;;;;;;6.43;3.10;;;24.70;99.90;;;25.46;100.00;101572.03;5217428;28;20041;-49
2023/07/10 08:05:42;;;;;;;5.90;3.22;;;24.70;99.90;;;25.36;100.00;101567.72;5201542;28;20076;-49
2023/07/10 08:08:14;;;;;;;5.40;2.90;;;24.60;99.90;;;25.31;100.00;101574.94;5200708;28;20049;-50
2023/07/10 08:10:49;;;;;;;6.15;3.00;;;24.60;99.90;;;25.12;100.00;101561.84;5217283;28;20042;-51
2023/07/10 08:13:22;;;;;;;5.90;3.00;;;24.50;99.90;;;24.99;100.00;101561.97;5217993;28;20498;-51
2023/07/10 08:15:55;;;;;;;7.07;3.05;;;24.40;99.90;;;24.87;100.00;101563.88;5201802;28;20102;-51
2023/07/10 08:18:28;;;;;;;4.82;3.00;;;24.20;99.90;;;24.87;100.00;101561.22;5201384;28;20055;-48
2023/07/10 08:21:04;;;;;;;5.43;2.50;;;24.20;99.90;;;25.07;100.00;101565.47;5200179;28;20050;-49
2023/07/10 08:23:37;;;;;;;4.78;3.05;;;24.30;99.90;;;25.32;100.00;101563.34;5200701;28;20697;-49
2023/07/10 08:26:09;;;;;;;4.82;2.58;;;24.40;99.90;;;25.55;100.00;101571.00;5201012;28;20609;-48
2023/07/10 08:28:42;;;;;;;4.65;2.70;;;24.60;99.90;;;25.76;100.00;101573.41;5201906;28;20037;-49
2023/07/10 08:31:19;;;;;;;6.65;2.53;;;24.70;99.90;;;25.78;100.00;101573.38;5217428;28;20053;-48
2023/07/10 08:33:52;;;;;;;5.03;2.72;;;24.80;99.90;;;25.78;100.00;101568.03;5200867;28;20046;-48
2023/07/10 08:36:24;;;;;;;7.72;3.00;;;24.90;99.90;;;25.84;100.00;101570.59;5217371;28;20045;-48
2023/07/10 08:39:00;;;;;;;4.10;2.97;;;24.90;99.90;;;25.90;100.00;101560.72;5215861;28;20103;-47
2023/07/10 08:41:33;;;;;;;5.75;3.47;;;24.90;99.90;;;25.92;100.00;101568.69;5200941;28;20406;-48
2023/07/10 08:44:05;;;;;;;5.60;3.10;;;25.00;99.90;;;26.30;100.00;101575.16;5200871;28;20045;-48
2023/07/10 08:46:39;;;;;;;5.10;2.83;;;25.10;99.90;;;27.85;96.92;101565.69;5200517;28;20043;-48
2023/07/10 08:49:20;;;;;;;5.57;2.80;;;25.80;99.90;;;29.23;89.23;101561.94;5216291;28;20060;-52
2023/07/10 08:52:00;;;;;;;6.13;3.15;;;26.70;99.90;;;29.90;83.74;101563.38;5202266;28;20041;-51
2023/07/10 08:54:32;;;;;;;5.00;2.75;;;27.30;99.90;;;30.59;83.46;101565.50;5200920;28;20052;-52
2023/07/10 08:57:20;;;;;;;4.75;2.50;;;27.80;99.90;;;31.60;79.88;101555.31;5200923;28;20053;-52
2023/07/10 08:59:59;;;;;;;4.15;2.42;;;28.60;98.50;;;31.66;77.68;101550.63;5201230;28;20046;-52
2023/07/10 09:02:42;;;;;;;4.15;2.55;;;28.90;96.80;;;31.03;78.45;101548.56;5200770;28;20045;-52
2023/07/10 09:05:19;;;;;;;3.08;2.33;;;28.80;96.10;;;30.21;79.97;101548.91;5180520;28;20073;-51
2023/07/10 09:07:52;;;;;;;4.72;2.42;;;28.40;95.90;;;30.93;79.25;101549.00;5198834;28;20050;-52
2023/07/10 09:10:35;;;;;;;4.78;2.13;;;28.60;96.20;;;31.66;76.16;101545.22;5209171;28;20069;-51
2023/07/10 09:13:14;;;;;;;3.72;2.20;;;29.10;95.10;;;31.79;75.66;101551.88;5201026;28;20586;-52
2023/07/10 09:15:52;;;;;;;5.38;2.38;;;29.20;94.40;;;32.24;74.02;101554.44;5204839;28;20053;-51
2023/07/10 09:18:36;;;;;;;3.10;2.13;;;29.60;93.60;;;32.41;72.29;101551.03;5204546;28;20411;-53
2023/07/10 09:21:17;;;;;;;2.80;1.73;;;29.80;92.40;;;32.40;71.89;101554.66;5204208;28;20069;-52
2023/07/10 09:23:50;;;;;;;6.25;2.35;;;29.90;91.60;;;31.61;71.01;101562.44;5219750;28;20511;-52
2023/07/10 09:26:28;;;;;;;4.22;2.08;;;29.60;90.20;;;30.94;74.15;101559.69;5214780;28;20041;-52
2023/07/10 09:29:25;;;;;;;5.32;2.45;;;29.10;91.10;;;31.33;74.50;101559.13;5203876;28;20132;-52
2023/07/10 09:32:05;;;;;;;4.95;2.30;;;29.20;91.70;;;31.49;73.09;101568.31;5203427;28;20049;-50
2023/07/10 09:34:44;;;;;;;5.35;2.10;;;29.30;90.90;;;31.30;73.78;101559.25;5203459;28;20045;-49
2023/07/10 09:37:20;;;;;;;4.15;2.25;;;29.40;90.80;;;30.62;74.79;101562.69;5218589;28;20049;-50
2023/07/10 09:39:53;;;;;;;3.25;1.98;;;29.10;90.40;;;30.15;76.67;101567.94;5219892;28;20083;-49
2023/07/10 09:42:35;;;;;;;4.53;2.17;;;28.80;90.90;;;30.09;78.04;101557.38;5203279;28;20053;-50
2023/07/10 09:45:10;;;;;;;4.10;2.05;;;28.80;91.40;;;30.04;77.63;101559.31;5216736;28;20491;-49
2023/07/10 09:47:50;;;;;;;3.35;1.88;;;28.80;91.10;;;29.69;76.05;101556.03;5201278;28;20156;-50
2023/07/10 09:50:23;;;;;;;3.13;1.90;;;28.60;90.20;;;29.28;76.89;101549.22;5199839;28;20046;-49
2023/07/10 09:52:57;;;;;;;3.50;1.90;;;28.40;90.20;;;29.17;77.97;101546.91;5202296;28;20053;-49
2023/07/10 09:55:29;;;;;;;3.42;2.00;;;28.20;90.70;;;29.25;78.99;101550.22;5220194;28;20041;-50
2023/07/10 09:58:04;;;;;;;6.43;2.45;;;28.20;91.10;;;29.24;78.99;101553.84;5201582;28;20072;-49
2023/07/10 10:00:45;;;;;;;7.90;3.70;;;28.20;91.10;;;29.01;79.32;101545.59;5203197;28;20580;-49
2023/07/10 10:03:25;;;;;;;8.07;3.03;;;28.10;91.20;;;28.77;79.08;101548.06;5214893;28;20042;-49
2023/07/10 10:06:00;;;;;;;4.90;2.40;;;27.90;91.00;;;28.79;79.77;101548.88;5218053;28;20144;-49
2023/07/10 10:08:45;;;;;;;4.65;2.08;;;27.90;91.20;;;29.05;79.20;101552.63;5219206;28;20053;-49
2023/07/10 10:11:34;;;;;;;6.47;2.65;;;28.00;91.20;;;29.41;78.41;101551.50;5194717;28;20044;-50
2023/07/10 10:14:14;;;;;;;5.75;2.35;;;28.20;91.00;;;29.45;76.47;101553.16;5219235;28;20042;-50
2023/07/10 10:16:55;;;;;;;5.53;2.13;;;28.30;90.10;;;29.55;76.74;101531.41;5218724;28;20045;-49
2023/07/10 10:19:32;;;;;;;3.60;1.90;;;28.40;90.00;;;29.77;75.32;101537.81;5218803;28;20056;-49
2023/07/10 10:22:11;;;;;;;5.50;2.15;;;28.60;89.20;;;29.92;75.06;101548.06;5217964;28;20541;-49
2023/07/10 10:24:44;;;;;;;3.20;1.90;;;28.70;88.50;;;29.81;75.29;101534.13;5219528;28;20038;-49
2023/07/10 10:27:29;;;;;;;3.08;1.52;;;28.70;88.30;;;29.78;75.55;101536.03;5187531;28;20048;-50
2023/07/10 10:30:31;;;;;;;3.40;1.60;;;28.70;88.20;;;29.81;75.91;101533.25;5203712;28;20107;-49
2023/07/10 10:33:20;;;;;;;1.80;1.30;;;28.80;89.00;;;29.63;75.77;101545.47;5203420;28;20045;-49
2023/07/10 10:35:59;;;;;;;2.58;1.20;;;28.70;88.10;;;29.52;75.95;101532.38;5203373;28;20136;-49